Decoded Metar for WBGS (SIBU in MALAYSIA) (IATA:SBW) | Meteo·Mobile Aviation Weather
aviador You're here:

WBGS Decoded Metar

SIBU in MALAYSIA
Report Time2018-08-20 01:00:00
UTC Time2018-08-20 01:25:22
Flight Rules vfr VFR
WindVRB at 04 kt
Visibility9999 m
Phenomena:N/A
Clouds:Few 009 Hf
Broken 150 Hf
Expected CloudBase > 2,000 ft AGL from Temp-Dew spread
Ceiling15,000 ft
Temp28°C (ISA +13)
Dew Point23°C (74% RH)
Heat Index31.2°C
QNH1011 hPa
Density Alt1,965 ft
Elevation26 ft
Report Wrong Elevation
Raw Report
METAR WBGS 200100Z VRB04KT 9999 FEW009 BKN150 28/23 Q1011=

Extra information for WBGS:More info

Metar Taf Metar & Taf Last 4 Metars F.Rules Stats Wind Profile Meteogram Temp Stats Airport Information Weather charts Add Link Nearby VenuesMetar ALERT Operation Metar Decoded Social comments